createdAt,value
2023-01-27T00:04:07.304Z,97730.69
2023-01-27T00:09:11.414Z,97731.00
2023-01-27T00:14:14.600Z,97728.94
2023-01-27T00:19:19.937Z,97725.59
2023-01-27T00:24:38.592Z,97723.84
2023-01-27T00:29:42.034Z,97718.53
2023-01-27T00:34:46.614Z,97726.59
2023-01-27T00:39:49.957Z,97729.13
2023-01-27T00:45:10.974Z,97720.47
2023-01-27T00:50:16.897Z,97721.78
2023-01-27T00:55:20.908Z,97720.16
2023-01-27T01:00:24.404Z,97723.28
2023-01-27T01:05:29.051Z,97728.22
2023-01-27T01:10:32.404Z,97724.09
2023-01-27T01:15:37.453Z,97729.47
2023-01-27T01:20:46.904Z,97736.56
2023-01-27T01:25:54.840Z,97740.16
2023-01-27T01:30:58.244Z,97738.25
2023-01-27T01:36:07.614Z,97742.28
2023-01-27T01:41:14.587Z,97736.63
2023-01-27T01:46:18.856Z,97731.63
2023-01-27T01:51:27.271Z,97725.72
2023-01-27T01:56:34.692Z,97726.22
2023-01-27T02:01:38.017Z,97721.69
2023-01-27T02:06:50.884Z,97712.84
2023-01-27T02:11:54.554Z,97718.06
2023-01-27T02:16:59.064Z,97722.72
2023-01-27T02:22:08.361Z,97726.66
2023-01-27T02:27:14.405Z,97725.69
2023-01-27T02:32:25.413Z,97733.31
2023-01-27T02:37:32.891Z,97733.22
2023-01-27T02:42:38.547Z,97739.38
2023-01-27T02:47:42.060Z,97738.38
2023-01-27T02:52:46.382Z,97744.34
2023-01-27T02:57:51.329Z,97744.72
2023-01-27T03:03:17.316Z,97749.19
2023-01-27T03:08:20.918Z,97739.38
2023-01-27T03:13:26.323Z,97740.22
2023-01-27T03:18:29.660Z,97748.88
2023-01-27T03:23:34.776Z,97751.59
2023-01-27T03:28:40.299Z,97754.44
2023-01-27T03:33:53.920Z,97753.91
2023-01-27T03:39:19.150Z,97757.94
2023-01-27T03:44:41.311Z,97763.56
2023-01-27T03:49:44.590Z,97771.84
2023-01-27T03:54:48.858Z,97758.16
2023-01-27T03:59:53.501Z,97760.75
2023-01-27T04:05:14.458Z,97762.66
2023-01-27T04:10:18.094Z,97761.72
2023-01-27T04:15:23.026Z,97764.28
2023-01-27T04:20:26.315Z,97766.34
2023-01-27T04:25:29.689Z,97758.63
2023-01-27T04:30:34.299Z,97769.53
2023-01-27T04:35:39.029Z,97760.56
2023-01-27T04:40:43.272Z,97765.03
2023-01-27T04:45:48.056Z,97780.34
2023-01-27T04:50:51.562Z,97779.06
2023-01-27T04:56:01.772Z,97789.38
2023-01-27T05:01:06.285Z,97801.03
2023-01-27T05:06:10.719Z,97802.13
2023-01-27T05:11:14.549Z,97794.03
2023-01-27T05:16:21.063Z,97801.22
2023-01-27T05:21:28.468Z,97792.44
2023-01-27T05:26:31.957Z,97787.75
2023-01-27T05:31:36.847Z,97797.97
2023-01-27T05:36:40.117Z,97804.28
2023-01-27T05:41:43.390Z,97797.75
2023-01-27T05:46:48.171Z,97802.94
2023-01-27T05:51:51.257Z,97808.72
2023-01-27T05:56:55.577Z,97802.81
2023-01-27T06:02:01.124Z,97808.28
2023-01-27T06:07:04.901Z,97808.28
2023-01-27T06:12:08.399Z,97807.13
2023-01-27T06:17:12.976Z,97813.69
2023-01-27T06:22:16.246Z,97819.94
2023-01-27T06:27:19.456Z,97830.19
2023-01-27T06:32:24.294Z,97831.03
2023-01-27T06:37:30.267Z,97835.78
2023-01-27T06:42:33.498Z,97833.09
2023-01-27T06:47:38.168Z,97827.69
2023-01-27T06:52:41.295Z,97841.66
2023-01-27T06:57:44.538Z,97835.25
2023-01-27T07:02:49.203Z,97843.03
2023-01-27T07:07:52.299Z,97854.19
2023-01-27T07:13:05.379Z,97855.66
2023-01-27T07:18:11.926Z,97859.84
2023-01-27T07:23:15.058Z,97864.88
2023-01-27T07:28:18.382Z,97871.19
2023-01-27T07:33:22.853Z,97869.03
2023-01-27T07:38:25.978Z,97869.03
2023-01-27T07:43:29.328Z,97880.31
2023-01-27T07:48:34.285Z,97876.56
2023-01-27T07:53:37.337Z,97881.69
2023-01-27T07:58:40.936Z,97889.06
2023-01-27T08:03:45.491Z,97913.91
2023-01-27T08:08:48.555Z,97911.66
2023-01-27T08:13:51.672Z,97923.38
2023-01-27T08:18:56.713Z,97926.44
2023-01-27T08:24:00.935Z,97933.69
2023-01-27T08:29:04.131Z,97935.38
2023-01-27T08:34:08.985Z,97924.66
2023-01-27T08:39:12.820Z,97935.91
2023-01-27T08:44:16.035Z,97945.00
2023-01-27T08:49:20.591Z,97935.59
2023-01-27T08:54:23.891Z,97945.28
2023-01-27T08:59:27.016Z,97952.34
2023-01-27T09:04:31.762Z,97941.41
2023-01-27T09:09:34.965Z,97949.09
2023-01-27T09:14:38.383Z,97953.31
2023-01-27T09:19:43.061Z,97960.38
2023-01-27T09:24:46.322Z,97961.72
2023-01-27T09:29:49.463Z,97964.38
2023-01-27T09:34:53.934Z,97960.06
2023-01-27T09:40:02.231Z,97956.91
2023-01-27T09:45:29.955Z,97962.03
2023-01-27T09:50:44.753Z,97961.91
2023-01-27T09:55:56.024Z,97963.88
2023-01-27T10:01:07.802Z,97958.66
2023-01-27T10:06:39.286Z,97961.22
2023-01-27T10:11:54.846Z,97965.88
2023-01-27T10:17:10.352Z,97968.50
2023-01-27T10:22:21.435Z,97964.84
2023-01-27T10:27:26.732Z,97970.84
2023-01-27T10:32:42.113Z,97966.81
2023-01-27T10:37:57.397Z,97964.16
2023-01-27T10:43:08.948Z,97976.50
2023-01-27T10:48:24.642Z,97969.06
2023-01-27T10:53:37.437Z,97962.78
2023-01-27T10:59:02.926Z,97957.00
2023-01-27T11:04:13.767Z,97958.47
2023-01-27T11:09:27.036Z,97957.72
2023-01-27T11:14:34.498Z,97956.69
2023-01-27T11:19:46.103Z,97958.53
2023-01-27T11:25:00.192Z,97970.78
2023-01-27T11:30:10.660Z,97962.44
2023-01-27T11:35:15.411Z,97956.22
2023-01-27T11:40:24.561Z,97954.47
2023-01-27T11:45:31.833Z,97945.06
2023-01-27T11:50:37.286Z,97939.97
2023-01-27T11:55:45.163Z,97951.28
2023-01-27T12:00:52.991Z,97940.28
2023-01-27T12:05:58.344Z,97932.63
2023-01-27T12:11:18.733Z,97937.66
2023-01-27T12:16:22.933Z,97935.69
2023-01-27T12:21:38.066Z,97932.72
2023-01-27T12:26:45.971Z,97928.78
2023-01-27T12:31:52.136Z,97925.88
2023-01-27T12:36:57.668Z,97922.59
2023-01-27T12:42:02.178Z,97927.94
2023-01-27T12:47:22.276Z,97917.72
2023-01-27T12:52:25.459Z,97918.00
2023-01-27T12:57:34.191Z,97910.81
2023-01-27T13:02:39.417Z,97912.16
2023-01-27T13:07:47.635Z,97909.69
2023-01-27T13:12:54.203Z,97912.53
2023-01-27T13:17:59.168Z,97918.03
2023-01-27T13:23:05.467Z,97913.59
2023-01-27T13:28:17.117Z,97920.81
2023-01-27T13:33:32.487Z,97921.94
2023-01-27T13:38:44.189Z,97911.22
2023-01-27T13:43:58.519Z,97918.16
2023-01-27T13:49:14.577Z,97920.50
2023-01-27T13:54:17.798Z,97927.47
2023-01-27T13:59:40.286Z,97926.50
2023-01-27T14:05:05.153Z,97928.31
2023-01-27T14:10:18.101Z,97929.03
2023-01-27T14:15:31.514Z,97929.03
2023-01-27T14:20:46.699Z,97934.00
2023-01-27T14:25:59.692Z,97939.69
2023-01-27T14:31:07.927Z,97941.13
2023-01-27T14:36:21.368Z,97951.34
2023-01-27T14:41:33.332Z,97942.84
2023-01-27T14:46:55.408Z,97945.69
2023-01-27T14:52:09.884Z,97950.00
2023-01-27T14:57:27.003Z,97958.19
2023-01-27T15:02:46.582Z,97961.03
2023-01-27T15:07:58.930Z,97971.69
2023-01-27T15:13:24.734Z,97963.34
2023-01-27T15:18:41.913Z,97970.53
2023-01-27T15:24:11.862Z,97980.66
2023-01-27T15:29:16.687Z,97979.53
2023-01-27T15:34:30.030Z,97984.94
2023-01-27T15:39:42.320Z,97994.06
2023-01-27T15:45:02.081Z,97994.22
2023-01-27T15:50:15.759Z,97991.47
2023-01-27T15:55:27.203Z,97993.84
2023-01-27T16:00:34.614Z,97992.13
2023-01-27T16:05:45.422Z,98004.53
2023-01-27T16:10:49.098Z,98001.03
2023-01-27T16:16:23.734Z,98008.53
2023-01-27T16:21:45.153Z,98022.66
2023-01-27T16:26:54.134Z,98022.97
2023-01-27T16:32:02.353Z,98023.88
2023-01-27T16:37:19.083Z,98032.22
2023-01-27T16:42:30.045Z,98026.41
2023-01-27T16:47:42.763Z,98035.34
2023-01-27T16:52:47.541Z,98038.44
2023-01-27T16:57:53.380Z,98034.50
2023-01-27T17:03:00.321Z,98046.81
2023-01-27T17:08:17.103Z,98043.56
2023-01-27T17:13:28.759Z,98049.03
2023-01-27T17:18:50.851Z,98041.13
2023-01-27T17:24:03.116Z,98047.88
2023-01-27T17:29:06.851Z,98050.69
2023-01-27T17:34:17.422Z,98047.00
2023-01-27T17:39:27.571Z,98054.81
2023-01-27T17:44:31.052Z,98067.31
2023-01-27T17:49:34.456Z,98065.81
2023-01-27T17:54:41.695Z,98065.25
2023-01-27T17:59:48.249Z,98066.25
2023-01-27T18:04:52.650Z,98068.63
2023-01-27T18:09:58.305Z,98064.09
2023-01-27T18:15:39.121Z,98067.25
2023-01-27T18:20:42.451Z,98079.41
2023-01-27T18:25:53.815Z,98081.13
2023-01-27T18:30:57.147Z,98072.91
2023-01-27T18:36:01.952Z,98079.47
2023-01-27T18:41:20.038Z,98087.44
2023-01-27T18:46:23.602Z,98091.34
2023-01-27T18:51:26.980Z,98089.16
2023-01-27T18:56:31.580Z,98095.66
2023-01-27T19:01:35.930Z,98106.19
2023-01-27T19:06:40.115Z,98102.75
2023-01-27T19:11:44.662Z,98110.38
2023-01-27T19:16:47.907Z,98105.53
2023-01-27T19:21:51.648Z,98105.78
2023-01-27T19:26:57.092Z,98106.06
2023-01-27T19:32:01.180Z,98098.66
2023-01-27T19:37:04.650Z,98105.38
2023-01-27T19:42:14.682Z,98106.69
2023-01-27T19:47:18.464Z,98112.31
2023-01-27T19:52:21.871Z,98116.56
2023-01-27T19:57:26.539Z,98118.03
2023-01-27T20:02:29.850Z,98117.91
2023-01-27T20:07:33.010Z,98119.59
2023-01-27T20:12:38.680Z,98124.91
2023-01-27T20:17:41.769Z,98117.34
2023-01-27T20:22:45.279Z,98128.63
2023-01-27T20:27:51.914Z,98140.94
2023-01-27T20:32:56.486Z,98137.03
2023-01-27T20:38:02.119Z,98130.09
2023-01-27T20:43:08.686Z,98135.91
2023-01-27T20:48:12.759Z,98132.94
2023-01-27T20:53:16.191Z,98136.91
2023-01-27T20:58:21.363Z,98136.75
2023-01-27T21:03:24.809Z,98135.19
2023-01-27T21:08:28.231Z,98150.38
2023-01-27T21:13:35.444Z,98148.13
2023-01-27T21:18:39.915Z,98156.84
2023-01-27T21:23:43.081Z,98163.13
2023-01-27T21:28:47.924Z,98151.25
2023-01-27T21:33:52.022Z,98159.41
2023-01-27T21:38:57.359Z,98148.75
2023-01-27T21:44:19.830Z,98139.97
2023-01-27T21:49:23.698Z,98146.84
2023-01-27T21:54:27.534Z,98150.97
2023-01-27T21:59:34.341Z,98154.72
2023-01-27T22:04:41.206Z,98159.75
2023-01-27T22:09:45.219Z,98153.16
2023-01-27T22:14:50.069Z,98159.81
2023-01-27T22:19:53.435Z,98162.44
2023-01-27T22:24:56.646Z,98156.06
2023-01-27T22:30:02.016Z,98156.47
2023-01-27T22:35:06.311Z,98150.56
2023-01-27T22:40:11.153Z,98150.41
2023-01-27T22:45:16.559Z,98154.63
2023-01-27T22:50:20.935Z,98154.88
2023-01-27T22:55:24.280Z,98163.28
2023-01-27T23:00:29.053Z,98160.53
2023-01-27T23:05:32.524Z,98163.13
2023-01-27T23:10:36.101Z,98151.69
2023-01-27T23:15:40.719Z,98159.44
2023-01-27T23:20:44.201Z,98160.28
2023-01-27T23:25:48.873Z,98154.13
2023-01-27T23:30:53.942Z,98152.38
2023-01-27T23:35:58.428Z,98154.97
2023-01-27T23:41:02.758Z,98153.28
2023-01-27T23:46:07.704Z,98158.00
2023-01-27T23:51:14.413Z,98148.66
2023-01-27T23:56:20.227Z,98146.19
